Time;durP1;ratioP1;P1;durP2;ratioP2;P2;SDS_P1;SDS_P2;PMS_P1;PMS_P2;Temp;Humidity;BMP_temperature;BMP_pressure;BME280_temperature;BME280_humidity;BME280_pressure;Samples;Min_cycle;Max_cycle;Signal;HPM_P1;HPM_P2
2024/03/08 00:00:33;;;;;;;22.00;17.40;;;;;;;3.83;76.12;101564.28;5075266;28;20265;-80
2024/03/08 00:03:00;;;;;;;19.03;16.90;;;;;;;3.83;75.52;101566.84;5075704;28;20755;-80
2024/03/08 00:05:27;;;;;;;19.80;17.43;;;;;;;3.81;75.81;101575.41;5076595;28;20232;-79
2024/03/08 00:07:55;;;;;;;20.53;17.70;;;;;;;3.77;75.97;101562.41;5076716;28;20212;-80
2024/03/08 00:10:21;;;;;;;19.77;17.77;;;;;;;3.80;75.13;101565.91;5075725;28;20232;-80
2024/03/08 00:12:48;;;;;;;19.60;17.40;;;;;;;3.72;75.70;101568.28;5075953;28;20257;-80
2024/03/08 00:15:15;;;;;;;19.27;17.00;;;;;;;3.72;75.83;101570.84;5076120;28;20232;-80
2024/03/08 00:17:41;;;;;;;20.67;17.87;;;;;;;3.70;76.20;101557.88;5075260;28;20624;-79
2024/03/08 00:20:09;;;;;;;20.40;16.10;;;;;;;3.75;75.89;101555.47;5079781;28;20205;-80
2024/03/08 00:22:36;;;;;;;19.80;17.00;;;;;;;3.65;75.94;101561.16;5075814;28;20204;-79
2024/03/08 00:25:05;;;;;;;19.27;17.10;;;;;;;3.58;76.27;101560.13;5076334;28;20228;-80
2024/03/08 00:27:31;;;;;;;21.40;17.67;;;;;;;3.62;76.29;101551.66;5073181;28;20208;-79
2024/03/08 00:29:58;;;;;;;21.10;17.67;;;;;;;3.66;76.23;101550.91;5073862;28;20269;-80
2024/03/08 00:32:25;;;;;;;25.80;18.70;;;;;;;3.61;76.50;101539.59;5075998;28;20236;-79
2024/03/08 00:34:51;;;;;;;20.23;18.07;;;;;;;3.56;76.55;101542.03;5076214;28;20201;-80
2024/03/08 00:37:18;;;;;;;19.37;17.37;;;;;;;3.57;75.90;101540.34;5076206;28;20210;-80
2024/03/08 00:39:44;;;;;;;18.23;16.43;;;;;;;3.60;76.09;101540.41;5076736;28;20828;-80
2024/03/08 00:42:12;;;;;;;18.13;16.33;;;;;;;3.61;75.64;101547.34;5076358;28;20267;-80
2024/03/08 00:44:39;;;;;;;17.90;16.07;;;;;;;3.58;75.54;101545.53;5075243;28;20652;-80
2024/03/08 00:47:06;;;;;;;20.40;18.27;;;;;;;3.55;75.75;101554.91;5076225;28;20263;-79
2024/03/08 00:49:33;;;;;;;19.90;17.80;;;;;;;3.45;76.67;101547.72;5076114;28;20205;-79
2024/03/08 00:51:59;;;;;;;23.83;17.40;;;;;;;3.41;76.58;101531.31;5076277;28;20278;-79
2024/03/08 00:54:26;;;;;;;23.60;19.90;;;;;;;3.45;76.63;101525.38;5076230;28;20205;-79
2024/03/08 00:56:52;;;;;;;22.50;18.70;;;;;;;3.45;76.31;101511.59;5079920;28;20313;-79
2024/03/08 00:59:20;;;;;;;22.47;18.33;;;;;;;3.34;76.94;101514.75;5070501;28;20279;-80
2024/03/08 01:01:46;;;;;;;20.43;18.20;;;;;;;3.28;76.96;101501.69;5077070;28;20240;-79
2024/03/08 01:04:13;;;;;;;21.77;16.70;;;;;;;3.26;76.72;101492.16;5080220;28;20645;-80
2024/03/08 01:06:39;;;;;;;22.33;18.27;;;;;;;3.14;77.45;101492.69;5078889;28;20229;-80
2024/03/08 01:09:06;;;;;;;19.90;17.70;;;;;;;3.17;77.42;101469.53;5079320;28;20254;-79
2024/03/08 01:11:33;;;;;;;18.97;17.17;;;;;;;3.12;77.64;101465.97;5079373;28;20201;-80
2024/03/08 01:13:59;;;;;;;18.23;16.47;;;;;;;3.07;78.17;101458.09;5080063;28;20675;-80
2024/03/08 01:16:27;;;;;;;17.63;15.83;;;;;;;3.06;78.18;101448.59;5080201;28;20224;-80
2024/03/08 01:18:53;;;;;;;18.50;16.50;;;;;;;2.88;78.07;101448.09;5080301;28;20250;-80
2024/03/08 01:21:20;;;;;;;27.20;21.03;;;;;;;2.85;78.38;101437.69;5080040;28;20204;-80
2024/03/08 01:23:46;;;;;;;20.63;18.47;;;;;;;2.82;79.05;101425.59;5079787;28;20224;-80
2024/03/08 01:26:14;;;;;;;20.20;17.63;;;;;;;2.78;78.61;101418.59;5078309;28;20231;-79
2024/03/08 01:28:41;;;;;;;24.80;19.53;;;;;;;2.87;78.91;101407.66;5074663;28;20223;-80
2024/03/08 01:31:07;;;;;;;25.90;21.07;;;;;;;2.85;78.54;101405.03;5079991;28;20216;-80
2024/03/08 01:33:35;;;;;;;33.93;23.40;;;;;;;2.74;78.58;101402.16;5079986;28;20202;-80
2024/03/08 01:36:02;;;;;;;23.10;20.60;;;;;;;2.74;79.14;101389.28;5079996;28;20229;-80
2024/03/08 01:38:28;;;;;;;25.13;19.90;;;;;;;2.72;79.55;101375.47;5080091;28;20206;-80
2024/03/08 01:40:55;;;;;;;19.33;17.20;;;;;;;2.75;79.44;101365.22;5079568;28;20200;-80
2024/03/08 01:43:22;;;;;;;22.50;17.63;;;;;;;2.72;79.50;101359.13;5079524;28;20237;-80
2024/03/08 01:45:50;;;;;;;25.23;18.73;;;;;;;2.71;79.72;101354.78;5079908;28;20228;-81
2024/03/08 01:48:18;;;;;;;19.80;17.70;;;;;;;2.70;79.23;101348.78;5080828;28;20702;-80
2024/03/08 01:50:46;;;;;;;20.80;17.40;;;;;;;2.74;79.80;101340.28;5079397;28;20706;-81
2024/03/08 01:53:15;;;;;;;21.83;18.70;;;;;;;2.69;79.79;101334.13;5079783;28;20234;-80
2024/03/08 01:55:41;;;;;;;23.90;18.97;;;;;;;2.68;79.57;101331.53;5079932;28;20231;-80
2024/03/08 01:58:10;;;;;;;23.10;19.17;;;;;;;2.72;80.21;101321.31;5074609;28;20678;-79
2024/03/08 02:00:40;;;;;;;23.90;19.33;;;;;;;2.72;79.63;101325.63;5078831;28;20809;-80
2024/03/08 02:03:06;;;;;;;26.83;19.60;;;;;;;2.80;79.26;101315.53;5079937;28;20265;-80
2024/03/08 02:05:33;;;;;;;25.50;18.77;;;;;;;2.86;79.02;101321.69;5079320;28;20288;-80
2024/03/08 02:08:01;;;;;;;25.73;20.13;;;;;;;2.91;78.71;101337.28;5079579;28;20693;-80
2024/03/08 02:10:27;;;;;;;30.03;21.33;;;;;;;2.93;78.36;101338.19;5078460;28;20220;-79
2024/03/08 02:12:54;;;;;;;24.00;19.50;;;;;;;2.88;78.58;101337.22;5079198;28;20206;-80
2024/03/08 02:15:21;;;;;;;24.07;19.50;;;;;;;2.92;78.21;101346.78;5078113;28;20222;-80
2024/03/08 02:17:47;;;;;;;24.43;19.80;;;;;;;2.89;78.35;101342.41;5079648;28;20208;-80
2024/03/08 02:20:14;;;;;;;25.63;19.87;;;;;;;2.85;78.79;101342.28;5079706;28;20770;-81
2024/03/08 02:22:41;;;;;;;24.80;19.73;;;;;;;2.84;78.22;101338.84;5079134;28;20297;-81
2024/03/08 02:25:09;;;;;;;23.87;19.17;;;;;;;2.87;78.81;101327.72;5079432;28;20233;-80
2024/03/08 02:27:35;;;;;;;23.87;20.93;;;;;;;2.85;78.19;101329.38;5075854;28;20213;-80
2024/03/08 02:30:01;;;;;;;26.67;21.33;;;;;;;2.89;77.67;101331.22;5076763;28;20202;-79
2024/03/08 02:32:28;;;;;;;26.47;19.70;;;;;;;2.88;77.92;101335.50;5078822;28;20258;-80
2024/03/08 02:34:59;;;;;;;25.17;19.80;;;;;;;2.85;78.32;101335.41;5078649;28;20206;-80
2024/03/08 02:37:26;;;;;;;25.93;19.20;;;;;;;2.81;78.62;101338.75;5079359;28;20280;-80
2024/03/08 02:39:54;;;;;;;26.33;20.70;;;;;;;2.77;78.47;101330.06;5078169;28;20206;-81
2024/03/08 02:42:20;;;;;;;26.20;20.43;;;;;;;2.72;79.05;101323.03;5078125;28;20265;-80
2024/03/08 02:44:46;;;;;;;27.87;20.93;;;;;;;2.76;78.76;101315.41;5077640;28;20261;-80
2024/03/08 02:47:13;;;;;;;27.50;19.50;;;;;;;2.77;78.88;101303.41;5077855;28;20210;-80
2024/03/08 02:49:39;;;;;;;22.37;19.60;;;;;;;2.82;78.94;101306.13;5078167;28;20516;-79
2024/03/08 02:52:07;;;;;;;23.20;18.63;;;;;;;2.71;78.74;101306.69;5077969;28;20765;-80
2024/03/08 02:54:34;;;;;;;26.13;19.97;;;;;;;2.70;78.76;101302.38;5078925;28;20203;-81
2024/03/08 02:57:03;;;;;;;29.07;19.77;;;;;;;2.68;78.34;101304.03;5078442;28;20212;-81
2024/03/08 02:59:30;;;;;;;26.80;20.37;;;;;;;2.70;78.78;101298.94;5073253;28;20274;-81
2024/03/08 03:01:56;;;;;;;25.97;19.20;;;;;;;2.68;78.89;101301.47;5079021;28;20214;-79
2024/03/08 03:04:22;;;;;;;28.93;21.30;;;;;;;2.57;79.59;101295.13;5078496;28;20230;-80
2024/03/08 03:06:49;;;;;;;32.40;20.57;;;;;;;2.63;79.82;101277.25;5077618;28;20234;-79
2024/03/08 03:09:16;;;;;;;28.63;21.60;;;;;;;2.58;80.24;101264.25;5078580;28;20204;-79
2024/03/08 03:11:45;;;;;;;29.47;19.70;;;;;;;2.62;79.83;101264.31;5077729;28;20637;-78
2024/03/08 03:14:12;;;;;;;25.77;19.87;;;;;;;2.63;79.69;101258.34;5077601;28;20202;-78
2024/03/08 03:16:38;;;;;;;25.53;18.77;;;;;;;2.59;79.29;101257.38;5076781;28;20259;-79
2024/03/08 03:19:05;;;;;;;32.17;22.00;;;;;;;2.52;79.67;101247.75;5077127;28;20211;-80
2024/03/08 03:21:31;;;;;;;30.93;21.80;;;;;;;2.50;79.71;101258.03;5078504;28;20208;-81
2024/03/08 03:23:59;;;;;;;29.57;21.80;;;;;;;2.51;79.44;101241.72;5077975;28;20252;-80
2024/03/08 03:26:25;;;;;;;35.17;20.80;;;;;;;2.50;79.89;101244.28;5077571;28;20226;-81
2024/03/08 03:28:52;;;;;;;31.60;22.00;;;;;;;2.48;79.57;101236.50;5071718;28;20211;-79
2024/03/08 03:31:19;;;;;;;26.23;21.67;;;;;;;2.48;80.11;101233.91;5069132;28;20264;-80
2024/03/08 03:33:46;;;;;;;33.70;22.43;;;;;;;2.47;80.67;101229.56;5077309;28;20214;-80
2024/03/08 03:36:14;;;;;;;33.97;21.90;;;;;;;2.51;79.79;101222.81;5077028;28;20238;-80
2024/03/08 03:38:40;;;;;;;29.13;20.80;;;;;;;2.51;79.53;101226.25;5076451;28;20212;-80
2024/03/08 03:41:10;;;;;;;29.73;21.20;;;;;;;2.52;79.26;101238.31;5076844;28;20629;-80
2024/03/08 03:43:37;;;;;;;23.67;20.60;;;;;;;2.47;79.88;101234.72;5077425;28;20210;-80
2024/03/08 03:46:06;;;;;;;28.37;21.10;;;;;;;2.44;80.40;101226.94;5076765;28;20240;-80
2024/03/08 03:48:34;;;;;;;25.67;21.37;;;;;;;2.47;80.04;101223.56;5076642;28;20211;-81
2024/03/08 03:51:00;;;;;;;29.70;21.87;;;;;;;2.42;80.50;101215.72;5076431;28;20207;-80
2024/03/08 03:53:27;;;;;;;30.00;22.17;;;;;;;2.43;79.20;101227.75;5077018;28;20264;-80
2024/03/08 03:55:54;;;;;;;28.20;20.43;;;;;;;2.39;79.29;101234.53;5076580;28;20224;-79
2024/03/08 03:58:22;;;;;;;28.67;21.87;;;;;;;2.38;79.73;101232.78;5071386;28;20727;-80
2024/03/08 04:00:48;;;;;;;30.00;21.73;;;;;;;2.36;79.59;101231.88;5077189;28;20236;-80
2024/03/08 04:03:16;;;;;;;30.27;21.67;;;;;;;2.31;80.24;101227.44;5077533;28;20626;-80
2024/03/08 04:05:44;;;;;;;24.20;20.87;;;;;;;2.31;80.64;101219.69;5076980;28;20696;-80
2024/03/08 04:08:11;;;;;;;30.57;21.23;;;;;;;2.31;80.42;101207.69;5076427;28;20687;-80
2024/03/08 04:10:37;;;;;;;32.27;21.47;;;;;;;2.38;79.70;101222.47;5076172;28;20206;-80
2024/03/08 04:13:04;;;;;;;30.77;21.63;;;;;;;2.23;80.83;101219.47;5076974;28;20206;-80
2024/03/08 04:15:30;;;;;;;25.80;20.30;;;;;;;2.28;81.16;101217.91;5076824;28;20227;-80
2024/03/08 04:17:57;;;;;;;29.67;20.83;;;;;;;2.28;80.34;101211.88;5076162;28;20290;-80
2024/03/08 04:20:23;;;;;;;28.67;21.87;;;;;;;2.27;80.33;101212.72;5077096;28;20209;-80
2024/03/08 04:22:51;;;;;;;33.23;21.93;;;;;;;2.17;80.57;101217.59;5076949;28;20207;-81
2024/03/08 04:25:17;;;;;;;28.03;21.53;;;;;;;2.22;80.37;101207.44;5075959;28;20251;-80
2024/03/08 04:27:44;;;;;;;32.20;21.20;;;;;;;2.22;80.67;101203.97;5072160;28;20268;-79
2024/03/08 04:30:11;;;;;;;33.20;21.77;;;;;;;2.24;80.28;101217.78;5075634;28;20243;-79
2024/03/08 04:32:38;;;;;;;31.30;22.47;;;;;;;2.18;80.40;101211.63;5081014;28;20662;-80
2024/03/08 04:35:05;;;;;;;30.07;21.47;;;;;;;2.20;80.50;101211.69;5080061;28;20227;-81
2024/03/08 04:37:31;;;;;;;27.63;20.73;;;;;;;2.23;79.60;101205.75;5081140;28;20634;-80
2024/03/08 04:39:59;;;;;;;26.60;21.43;;;;;;;2.17;80.16;101214.16;5080605;28;20267;-80
2024/03/08 04:42:27;;;;;;;30.80;21.93;;;;;;;2.17;79.55;101212.44;5080488;28;20213;-80
2024/03/08 04:44:53;;;;;;;28.80;21.57;;;;;;;2.19;80.03;101209.94;5079736;28;20285;-79
2024/03/08 04:47:20;;;;;;;30.00;21.03;;;;;;;2.20;79.36;101216.84;5080270;28;20214;-79
2024/03/08 04:49:46;;;;;;;28.00;21.67;;;;;;;2.17;79.18;101217.59;5078466;28;20208;-79
2024/03/08 04:52:13;;;;;;;26.53;19.90;;;;;;;2.13;78.98;101223.50;5079017;28;20245;-79
2024/03/08 04:54:39;;;;;;;32.17;21.70;;;;;;;2.11;79.23;101226.88;5078442;28;20207;-78
2024/03/08 04:57:07;;;;;;;28.07;20.70;;;;;;;2.07;78.91;101231.06;5078767;28;20205;-79
2024/03/08 04:59:33;;;;;;;27.43;20.70;;;;;;;2.03;79.42;101225.78;5072494;28;20213;-79
2024/03/08 05:02:00;;;;;;;27.30;20.80;;;;;;;1.99;79.95;101220.53;5079363;28;20268;-79
2024/03/08 05:04:26;;;;;;;28.93;20.97;;;;;;;1.92;80.19;101210.91;5078909;28;20575;-79
2024/03/08 05:06:53;;;;;;;32.13;22.10;;;;;;;1.91;79.95;101198.84;5078163;28;20235;-80
2024/03/08 05:09:19;;;;;;;29.20;21.43;;;;;;;1.91;80.04;101201.44;5078097;28;20252;-80
2024/03/08 05:11:47;;;;;;;32.70;22.37;;;;;;;1.90;79.95;101194.53;5078740;28;20685;-80
2024/03/08 05:14:19;;;;;;;27.10;21.23;;;;;;;1.91;80.13;101185.97;5078434;28;20203;-79
2024/03/08 05:16:48;;;;;;;27.33;21.33;;;;;;;1.94;79.83;101188.66;5077565;28;20249;-81
2024/03/08 05:19:16;;;;;;;28.60;20.60;;;;;;;1.93;80.32;101188.59;5078817;28;20209;-80
2024/03/08 05:21:43;;;;;;;28.37;20.77;;;;;;;1.96;79.24;101188.66;5077791;28;20669;-77
2024/03/08 05:24:09;;;;;;;26.10;20.97;;;;;;;1.94;80.19;101188.66;5078504;28;20226;-80
2024/03/08 05:26:37;;;;;;;36.20;22.90;;;;;;;1.93;80.72;101192.03;5078363;28;20284;-79
2024/03/08 05:29:03;;;;;;;32.03;22.77;;;;;;;1.92;80.69;101181.69;5071393;28;20237;-78
2024/03/08 05:31:36;;;;;;;28.40;21.40;;;;;;;1.92;80.63;101171.41;5078953;28;20216;-80
2024/03/08 05:34:03;;;;;;;34.60;22.50;;;;;;;1.93;80.25;101181.75;5078222;28;20552;-80
2024/03/08 05:36:30;;;;;;;31.17;21.27;;;;;;;1.91;79.67;101188.56;5079084;28;20234;-80
2024/03/08 05:38:56;;;;;;;30.67;21.40;;;;;;;1.91;79.87;101183.41;5078695;28;20211;-80
2024/03/08 05:41:22;;;;;;;33.83;22.50;;;;;;;1.90;79.63;101197.13;5077898;28;20708;-80
2024/03/08 05:43:48;;;;;;;28.20;20.97;;;;;;;1.90;79.88;101191.97;5078472;28;20215;-80
2024/03/08 05:46:18;;;;;;;30.57;22.67;;;;;;;1.88;79.80;101192.75;5077964;28;20280;-79
2024/03/08 05:48:45;;;;;;;30.97;21.87;;;;;;;1.90;79.32;101202.28;5077449;28;20213;-80
2024/03/08 05:51:13;;;;;;;29.37;21.83;;;;;;;1.91;79.05;101198.84;5077891;28;20625;-79
2024/03/08 05:53:39;;;;;;;34.47;22.00;;;;;;;1.93;79.88;101196.31;5078340;28;20210;-80
2024/03/08 05:56:06;;;;;;;30.70;22.57;;;;;;;1.89;79.66;101192.78;5077997;28;20247;-80
2024/03/08 05:58:33;;;;;;;34.20;22.13;;;;;;;1.91;79.61;101197.97;5070950;28;20250;-79
2024/03/08 06:00:59;;;;;;;37.13;23.30;;;;;;;1.91;79.68;101197.97;5077531;28;20206;-78
2024/03/08 06:03:26;;;;;;;36.40;23.83;;;;;;;1.92;79.79;101202.28;5077980;28;20260;-80
2024/03/08 06:05:53;;;;;;;44.27;27.07;;;;;;;1.92;79.40;101200.63;5078992;28;20231;-80
2024/03/08 06:08:20;;;;;;;43.70;27.60;;;;;;;1.91;80.31;101198.84;5093828;22;20327;-76
2024/03/08 06:10:49;;;;;;;33.23;23.87;;;;;;;1.91;79.89;101196.28;5054367;28;20212;-78
2024/03/08 06:13:15;;;;;;;35.07;24.60;;;;;;;1.91;80.16;101191.13;5054041;28;20553;-79
2024/03/08 06:15:42;;;;;;;40.20;25.30;;;;;;;1.94;79.72;101195.47;5055538;28;20206;-77
2024/03/08 06:18:10;;;;;;;36.33;25.27;;;;;;;1.94;79.80;101187.75;5054761;28;20253;-79
2024/03/08 06:20:37;;;;;;;49.70;29.37;;;;;;;1.92;80.32;101192.88;5054891;28;20211;-77
2024/03/08 06:23:04;;;;;;;32.40;23.97;;;;;;;1.97;78.76;101190.44;5039934;28;20204;-79
2024/03/08 06:25:31;;;;;;;34.47;22.63;;;;;;;1.97;79.19;101204.16;5026559;28;20274;-77
2024/03/08 06:27:57;;;;;;;50.33;28.37;;;;;;;1.93;80.14;101201.47;5035010;28;20219;-78
2024/03/08 06:30:23;;;;;;;38.33;23.77;;;;;;;1.97;79.21;101195.59;5034997;28;20274;-79
2024/03/08 06:32:50;;;;;;;32.77;23.93;;;;;;;1.99;78.54;101199.06;5034341;28;20699;-79
2024/03/08 06:35:16;;;;;;;32.20;23.53;;;;;;;2.01;78.51;101206.84;5034649;28;20208;-79
2024/03/08 06:37:44;;;;;;;43.37;26.67;;;;;;;2.03;79.48;101208.63;5034951;28;20623;-78
2024/03/08 06:40:13;;;;;;;45.53;27.83;;;;;;;2.03;79.66;101200.91;5034442;28;20239;-78
2024/03/08 06:42:41;;;;;;;57.57;30.73;;;;;;;2.00;79.10;101200.81;5034287;28;20236;-78
2024/03/08 06:45:09;;;;;;;49.90;29.40;;;;;;;2.05;79.08;101198.38;5034499;28;20254;-79
2024/03/08 06:47:35;;;;;;;43.10;26.67;;;;;;;2.04;79.68;101192.31;5034493;28;20293;-78
2024/03/08 06:50:01;;;;;;;39.97;25.97;;;;;;;2.07;78.68;101197.59;5033340;28;20270;-79
2024/03/08 06:52:28;;;;;;;39.70;27.93;;;;;;;2.10;79.49;101196.78;5032117;28;20204;-78
2024/03/08 06:54:54;;;;;;;54.50;31.67;;;;;;;2.06;79.40;101193.28;5032581;28;20637;-78
2024/03/08 06:57:22;;;;;;;35.03;24.87;;;;;;;2.12;79.58;101193.44;5032728;28;20209;-77
2024/03/08 06:59:48;;;;;;;32.43;24.00;;;;;;;2.13;79.80;101186.59;5032644;28;20228;-78
2024/03/08 07:02:15;;;;;;;31.37;23.40;;;;;;;2.18;78.71;101200.44;5032843;28;20629;-78
2024/03/08 07:04:41;;;;;;;33.43;24.87;;;;;;;2.21;78.88;101202.25;5032677;28;20745;-77
2024/03/08 07:07:09;;;;;;;33.80;24.43;;;;;;;2.24;78.52;101204.88;5032334;28;20222;-77
2024/03/08 07:09:35;;;;;;;38.67;25.23;;;;;;;2.26;78.49;101206.69;5032261;28;20327;-77
2024/03/08 07:12:02;;;;;;;44.83;28.77;;;;;;;2.29;78.67;101213.63;5033867;28;20274;-77
2024/03/08 07:14:30;;;;;;;32.10;24.70;;;;;;;2.31;78.93;101206.81;5032339;28;20433;-79
2024/03/08 07:16:57;;;;;;;34.27;24.10;;;;;;;2.31;78.57;101211.97;5032384;28;20250;-77
2024/03/08 07:19:23;;;;;;;36.63;22.87;;;;;;;2.37;78.74;101212.13;5032201;28;20232;-77
2024/03/08 07:21:50;;;;;;;31.43;23.27;;;;;;;2.36;79.18;101200.09;5032269;28;20218;-77
2024/03/08 07:24:40;;;;;;;36.23;24.63;;;;;;;2.37;79.39;101201.81;5032190;28;20671;-78
2024/03/08 07:27:05;;;;;;;33.47;24.30;;;;;;;2.42;79.11;101199.34;5032151;28;20228;-79
2024/03/08 07:29:33;;;;;;;32.43;25.23;;;;;;;2.44;79.02;101190.88;5032472;28;20243;-79
2024/03/08 07:32:12;;;;;;;36.93;25.63;;;;;;;2.50;79.17;101195.31;5032375;28;20227;-80
2024/03/08 07:34:39;;;;;;;32.07;23.67;;;;;;;2.57;78.40;101194.63;5032496;28;20645;-77
2024/03/08 07:37:10;;;;;;;36.83;25.60;;;;;;;2.60;78.57;101197.28;5029629;28;20204;-78
2024/03/08 07:39:37;;;;;;;36.63;24.17;;;;;;;2.60;79.73;101186.97;5031904;28;20228;-76
2024/03/08 07:42:03;;;;;;;30.13;23.60;;;;;;;2.66;79.09;101171.66;5031712;28;20676;-77
2024/03/08 07:44:31;;;;;;;35.83;24.47;;;;;;;2.71;78.89;101174.34;5031417;28;20582;-78
2024/03/08 07:46:59;;;;;;;34.13;24.27;;;;;;;2.70;79.14;101181.22;5031443;28;20313;-76
2024/03/08 07:49:25;;;;;;;31.67;23.03;;;;;;;2.71;78.46;101188.09;5031679;28;20235;-77
2024/03/08 07:51:52;;;;;;;31.83;23.50;;;;;;;2.75;77.95;101186.47;5031831;28;20636;-77
2024/03/08 07:54:18;;;;;;;42.90;24.70;;;;;;;2.75;79.04;101184.75;5031548;28;20558;-78
2024/03/08 07:56:44;;;;;;;33.77;25.10;;;;;;;2.77;78.11;101188.28;5031542;28;20208;-77
2024/03/08 07:59:11;;;;;;;31.37;24.23;;;;;;;2.85;78.43;101188.44;5031691;28;20232;-77
2024/03/08 08:01:38;;;;;;;33.10;24.97;;;;;;;2.88;78.32;101200.56;5031951;28;20212;-79
2024/03/08 08:04:05;;;;;;;36.20;24.97;;;;;;;2.87;77.55;101209.13;5032792;28;20207;-78
2024/03/08 08:06:33;;;;;;;32.27;24.07;;;;;;;2.90;77.61;101211.78;5032091;28;20223;-78
2024/03/08 08:09:00;;;;;;;30.23;23.27;;;;;;;2.89;78.08;101210.03;5031438;28;20239;-77
2024/03/08 08:11:27;;;;;;;31.07;24.50;;;;;;;2.95;78.03;101205.91;5031534;28;20290;-77
2024/03/08 08:13:54;;;;;;;32.87;25.23;;;;;;;2.96;78.38;101211.94;5031578;28;20208;-77
2024/03/08 08:16:20;;;;;;;33.50;24.30;;;;;;;3.04;77.40;101209.53;5031824;28;20216;-77
2024/03/08 08:18:48;;;;;;;37.00;25.30;;;;;;;3.06;77.37;101223.34;5031552;28;20287;-78
2024/03/08 08:21:16;;;;;;;34.23;24.80;;;;;;;3.09;77.70;101213.09;5031890;28;20214;-77
2024/03/08 08:23:42;;;;;;;33.97;24.73;;;;;;;3.12;77.46;101216.63;5035473;28;20217;-77
2024/03/08 08:26:11;;;;;;;35.10;23.80;;;;;;;3.15;78.28;101210.66;5051057;28;20276;-77
2024/03/08 08:28:38;;;;;;;35.03;24.57;;;;;;;3.22;77.76;101198.78;5051208;28;20231;-79
2024/03/08 08:31:04;;;;;;;29.13;24.73;;;;;;;3.24;77.16;101205.72;5052345;28;20264;-77
2024/03/08 08:33:31;;;;;;;32.37;24.60;;;;;;;3.26;77.07;101226.41;5051888;28;20202;-77
2024/03/08 08:35:58;;;;;;;30.37;24.10;;;;;;;3.31;76.88;101222.19;5051717;28;20265;-77
2024/03/08 08:38:26;;;;;;;39.27;24.20;;;;;;;3.40;76.58;101234.47;5051126;28;20229;-77
2024/03/08 08:40:52;;;;;;;37.37;24.83;;;;;;;3.34;77.13;101238.63;5051260;28;20215;-76
2024/03/08 08:43:21;;;;;;;45.00;27.43;;;;;;;3.44;76.70;101231.97;5051077;28;20272;-77
2024/03/08 08:45:50;;;;;;;50.33;30.53;;;;;;;3.45;76.20;101238.91;5051117;28;20231;-77
2024/03/08 08:48:16;;;;;;;37.87;26.27;;;;;;;3.49;76.38;101247.56;5051276;28;20314;-75
2024/03/08 08:50:44;;;;;;;33.53;24.07;;;;;;;3.53;75.80;101254.56;5051843;28;20259;-78
2024/03/08 08:53:10;;;;;;;40.90;27.00;;;;;;;3.57;76.07;101259.81;5037424;28;20712;-78
2024/03/08 08:55:40;;;;;;;37.80;24.57;;;;;;;3.57;75.90;101252.09;5050750;28;20564;-77
2024/03/08 08:58:07;;;;;;;32.37;25.10;;;;;;;3.66;76.33;101251.41;5051216;28;20208;-78
2024/03/08 09:00:34;;;;;;;32.80;25.00;;;;;;;3.70;76.45;101249.78;5051295;28;20211;-76
2024/03/08 09:03:02;;;;;;;33.73;25.73;;;;;;;3.74;76.67;101238.66;5051438;28;20211;-79
2024/03/08 09:05:28;;;;;;;34.83;24.87;;;;;;;3.76;76.90;101235.28;5051381;28;20207;-79
2024/03/08 09:07:54;;;;;;;37.83;26.00;;;;;;;3.87;76.56;101232.06;5050975;28;20200;-76
2024/03/08 09:10:21;;;;;;;31.17;24.87;;;;;;;3.89;76.46;101223.50;5050627;28;20269;-78
2024/03/08 09:12:49;;;;;;;42.80;28.53;;;;;;;4.05;76.07;101229.00;5051191;28;20575;-77
2024/03/08 09:15:20;;;;;;;40.27;26.20;;;;;;;4.09;75.28;101239.41;5051116;28;20821;-75
2024/03/08 09:17:48;;;;;;;31.53;24.13;;;;;;;4.05;74.88;101254.84;5054002;28;20210;-77
2024/03/08 09:20:14;;;;;;;40.83;27.47;;;;;;;4.15;74.89;101257.63;5054653;28;20607;-78
2024/03/08 09:22:41;;;;;;;33.40;24.80;;;;;;;4.24;74.53;101264.72;5040377;28;20210;-78
2024/03/08 09:25:09;;;;;;;30.63;23.93;;;;;;;4.13;75.57;101261.03;5054655;28;20216;-77
2024/03/08 09:27:36;;;;;;;33.07;23.97;;;;;;;4.22;75.08;101250.84;5054226;28;20727;-77
2024/03/08 09:30:04;;;;;;;34.07;25.50;;;;;;;4.24;75.22;101254.38;5054083;28;20706;-77
2024/03/08 09:32:31;;;;;;;31.10;24.10;;;;;;;4.30;74.45;101253.59;5054301;28;20236;-78
2024/03/08 09:34:57;;;;;;;31.73;23.10;;;;;;;4.30;74.17;101257.06;5054638;28;20210;-77
2024/03/08 09:37:24;;;;;;;30.60;24.30;;;;;;;4.24;74.68;101256.97;5054280;28;20210;-77
2024/03/08 09:39:50;;;;;;;31.73;25.20;;;;;;;4.34;74.55;101245.97;5055733;28;20228;-77
2024/03/08 09:42:17;;;;;;;32.57;24.03;;;;;;;4.43;73.93;101252.16;5054350;28;20249;-77
2024/03/08 09:44:47;;;;;;;34.67;24.73;;;;;;;4.44;75.46;101244.44;5047211;28;20194;-77
2024/03/08 09:47:16;;;;;;;30.07;25.77;;;;;;;4.55;74.08;101232.56;5033548;28;20231;-79
2024/03/08 09:49:43;;;;;;;31.17;24.57;;;;;;;4.67;73.42;101241.38;5036530;28;20840;-78
2024/03/08 09:52:10;;;;;;;28.87;24.33;;;;;;;4.65;74.45;101249.09;5033879;28;20215;-78
2024/03/08 09:54:36;;;;;;;29.60;23.93;;;;;;;4.71;72.61;101258.69;5032574;28;20710;-77
2024/03/08 09:57:04;;;;;;;33.43;24.83;;;;;;;4.66;73.17;101268.97;5033607;28;20205;-78
2024/03/08 09:59:44;;;;;;;35.13;23.17;;;;;;;4.69;73.81;101261.25;5033831;28;20228;-78
2024/03/08 10:02:16;;;;;;;32.00;25.60;;;;;;;4.77;73.88;101257.09;5033898;28;20219;-78
2024/03/08 10:04:46;;;;;;;25.03;22.47;;;;;;;4.83;72.60;101251.16;4337356;28;10000792;-78
2024/03/08 10:07:12;;;;;;;34.10;24.83;;;;;;;4.83;72.72;101260.63;5012298;28;20228;-80
2024/03/08 10:09:39;;;;;;;38.00;27.43;;;;;;;4.91;72.90;101266.81;5011200;28;20230;-78
2024/03/08 10:12:06;;;;;;;41.00;27.60;;;;;;;5.01;71.63;101270.44;5011443;28;20678;-77
2024/03/08 10:14:32;;;;;;;34.23;25.33;;;;;;;4.98;71.30;101292.81;5011766;28;20283;-78
2024/03/08 10:16:59;;;;;;;36.77;27.10;;;;;;;5.02;71.45;101288.56;5012058;28;20210;-79
2024/03/08 10:19:29;;;;;;;35.73;25.77;;;;;;;5.06;70.62;101294.69;5011785;28;20236;-79
2024/03/08 10:21:58;;;;;;;30.60;24.03;;;;;;;5.20;69.93;101307.88;5016195;28;20217;-78
2024/03/08 10:24:25;;;;;;;32.87;25.23;;;;;;;5.20;70.54;101313.91;5031023;28;20208;-78
2024/03/08 10:26:53;;;;;;;26.13;23.13;;;;;;;5.18;71.58;101313.88;5031197;28;20232;-78
2024/03/08 10:29:20;;;;;;;28.77;24.00;;;;;;;5.31;70.75;101301.13;5029953;28;20771;-78
2024/03/08 10:31:46;;;;;;;31.73;24.37;;;;;;;5.36;70.46;101302.09;5030738;28;20263;-78
2024/03/08 10:34:12;;;;;;;31.60;24.50;;;;;;;5.39;71.49;101309.88;5031639;28;20213;-78
2024/03/08 10:36:40;;;;;;;34.57;26.43;;;;;;;5.40;71.59;101300.44;5031185;28;20745;-78
2024/03/08 10:39:15;;;;;;;33.37;25.83;;;;;;;5.56;70.17;101299.81;5030699;28;20618;-77
2024/03/08 10:41:45;;;;;;;29.57;24.53;;;;;;;5.65;68.84;101319.78;5030618;28;20206;-77
2024/03/08 10:44:22;;;;;;;29.57;24.77;;;;;;;5.69;69.35;101324.16;5030945;28;20205;-78
2024/03/08 10:47:01;;;;;;;30.20;24.70;;;;;;;5.74;69.05;101344.13;5030728;28;20231;-78
2024/03/08 10:49:34;;;;;;;31.30;24.03;;;;;;;5.82;69.03;101353.75;5030970;28;20227;-77
2024/03/08 10:52:03;;;;;;;36.73;25.53;;;;;;;5.82;69.14;101362.38;5030754;28;20213;-77
2024/03/08 10:54:32;;;;;;;33.53;24.43;;;;;;;5.87;69.59;101345.19;5029866;28;20360;-77
2024/03/08 10:56:58;;;;;;;28.80;25.73;;;;;;;5.91;68.28;101364.25;5030289;28;20202;-78
2024/03/08 10:59:26;;;;;;;28.70;23.03;;;;;;;6.03;68.95;101363.59;5029891;28;20719;-78
2024/03/08 11:01:54;;;;;;;28.13;24.57;;;;;;;6.05;68.33;101365.34;5029987;28;20205;-78
2024/03/08 11:04:22;;;;;;;29.93;23.27;;;;;;;6.14;68.61;101346.47;5029873;28;20564;-77
2024/03/08 11:06:52;;;;;;;28.70;24.63;;;;;;;6.17;69.26;101349.09;5010942;28;20230;-78
2024/03/08 11:09:30;;;;;;;27.20;24.20;;;;;;;6.30;69.19;101332.88;5010470;28;20243;-76
2024/03/08 11:12:25;;;;;;;27.20;23.30;;;;;;;6.38;69.10;101337.25;5010165;28;20206;-77
2024/03/08 11:14:52;;;;;;;30.10;22.97;;;;;;;6.49;68.75;101318.41;5012040;28;20592;-78
2024/03/08 11:17:22;;;;;;;28.73;23.63;;;;;;;6.63;68.71;101325.47;5010944;28;20212;-78